createdAt,value
2022-11-24T04:41:24.098Z,19.95
2022-11-24T04:44:27.557Z,28.25
2022-11-24T04:47:30.049Z,23.15
2022-11-24T04:50:37.133Z,27.30
2022-11-24T04:53:39.624Z,29.42
2022-11-24T04:56:43.872Z,31.92
2022-11-24T04:59:46.467Z,24.45
2022-11-24T05:02:49.251Z,24.95
2022-11-24T05:05:51.695Z,26.33
2022-11-24T05:08:54.528Z,23.80
2022-11-24T05:11:57.196Z,26.50
2022-11-24T05:15:01.533Z,37.92
2022-11-24T05:18:09.397Z,25.60
2022-11-24T05:21:12.572Z,27.23
2022-11-24T05:24:15.069Z,25.62
2022-11-24T05:27:17.850Z,28.25
2022-11-24T05:30:20.378Z,25.62
2022-11-24T05:33:23.149Z,22.83
2022-11-24T05:36:44.890Z,34.47
2022-11-24T05:39:47.854Z,30.67
2022-11-24T05:42:50.334Z,26.80
2022-11-24T05:45:53.304Z,27.80
2022-11-24T05:48:55.892Z,25.15
2022-11-24T05:51:58.752Z,28.23
2022-11-24T05:55:01.240Z,20.77
2022-11-24T05:58:06.424Z,26.35
2022-11-24T06:01:09.005Z,23.92
2022-11-24T06:04:11.774Z,27.73
2022-11-24T06:07:14.821Z,20.17
2022-11-24T06:10:19.413Z,24.73
2022-11-24T06:13:21.964Z,21.75
2022-11-24T06:16:24.851Z,19.77
2022-11-24T06:19:27.597Z,20.08
2022-11-24T06:25:33.160Z,17.37
2022-11-24T06:28:36.268Z,16.67
2022-11-24T06:31:38.845Z,17.77
2022-11-24T06:34:41.757Z,23.55
2022-11-24T06:37:45.777Z,17.37
2022-11-24T06:40:48.690Z,26.15
2022-11-24T06:43:51.158Z,16.15
2022-11-24T06:46:54.002Z,16.55
2022-11-24T06:49:56.695Z,21.55
2022-11-24T06:52:59.391Z,19.85
2022-11-24T06:56:02.603Z,22.37
2022-11-24T06:59:05.536Z,18.80
2022-11-24T07:02:10.230Z,18.73
2022-11-24T07:05:16.071Z,17.73
2022-11-24T07:08:18.679Z,17.60
2022-11-24T07:11:23.661Z,22.08
2022-11-24T07:14:27.011Z,20.00
2022-11-24T07:17:29.895Z,19.62
2022-11-24T07:20:32.611Z,21.42
2022-11-24T07:23:35.511Z,17.45
2022-11-24T07:26:38.068Z,24.23
2022-11-24T07:29:40.862Z,21.12
2022-11-24T07:32:43.357Z,25.50
2022-11-24T07:35:46.187Z,18.00
2022-11-24T07:38:49.083Z,19.58
2022-11-24T07:41:51.842Z,21.83
2022-11-24T07:44:54.382Z,24.23
2022-11-24T07:47:57.150Z,20.75
2022-11-24T07:51:00.574Z,19.98
2022-11-24T07:54:03.666Z,26.70
2022-11-24T07:57:06.144Z,25.70
2022-11-24T08:00:12.936Z,19.45
2022-11-24T08:03:16.027Z,21.23
2022-11-24T08:06:31.712Z,18.65
2022-11-24T08:09:38.969Z,18.00
2022-11-24T08:12:43.825Z,20.62
2022-11-24T08:15:46.778Z,18.80
2022-11-24T08:18:51.528Z,19.50
2022-11-24T08:21:54.518Z,17.67
2022-11-24T08:24:57.029Z,26.45
2022-11-24T08:28:01.213Z,21.52
2022-11-24T08:31:10.098Z,25.12
2022-11-24T08:34:14.754Z,24.37
2022-11-24T08:37:17.373Z,26.52
2022-11-24T08:40:20.655Z,23.15
2022-11-24T08:43:23.147Z,24.73
2022-11-24T08:46:26.007Z,25.95
2022-11-24T08:49:28.695Z,18.87
2022-11-24T08:52:31.874Z,18.12
2022-11-24T08:55:34.414Z,25.73
2022-11-24T08:58:38.014Z,21.17
2022-11-24T09:01:41.865Z,18.73
2022-11-24T09:04:45.796Z,17.90
2022-11-24T09:07:48.362Z,22.90
2022-11-24T09:10:51.579Z,21.80
2022-11-24T09:13:55.404Z,20.37
2022-11-24T09:16:58.249Z,20.00
2022-11-24T09:20:00.812Z,20.48
2022-11-24T09:23:03.826Z,22.05
2022-11-24T09:26:12.438Z,21.37
2022-11-24T09:29:15.394Z,23.83
2022-11-24T09:32:17.961Z,24.90
2022-11-24T09:35:21.208Z,20.27
2022-11-24T09:38:24.276Z,22.13
2022-11-24T09:41:38.479Z,20.35
2022-11-24T09:45:04.934Z,19.77
2022-11-24T09:48:32.090Z,19.08
2022-11-24T09:51:37.160Z,21.80
2022-11-24T09:54:52.741Z,13.75
2022-11-24T09:58:09.642Z,23.38
2022-11-24T10:01:18.140Z,21.92
2022-11-24T10:04:26.124Z,17.52
2022-11-24T10:07:42.666Z,15.88
2022-11-24T10:11:00.985Z,13.38
2022-11-24T10:14:26.307Z,20.48
2022-11-24T10:18:09.303Z,18.05
2022-11-24T10:21:35.446Z,17.33
2022-11-24T10:25:00.011Z,17.73
2022-11-24T10:28:05.094Z,20.52
2022-11-24T10:31:25.037Z,17.45
2022-11-24T10:34:34.508Z,18.70
2022-11-24T10:37:43.702Z,16.05
2022-11-24T10:41:07.856Z,17.75
2022-11-24T10:44:15.060Z,16.87
2022-11-24T10:47:22.888Z,16.60
2022-11-24T10:50:28.231Z,14.57
2022-11-24T10:53:31.288Z,16.60
2022-11-24T10:56:41.729Z,17.73
2022-11-24T10:59:44.381Z,20.12
2022-11-24T11:03:09.881Z,17.55
2022-11-24T11:06:15.086Z,16.92
2022-11-24T11:09:23.283Z,14.52
2022-11-24T11:12:45.707Z,12.23
2022-11-24T11:15:48.909Z,17.33
2022-11-24T11:18:52.271Z,13.70
2022-11-24T11:22:15.949Z,16.83
2022-11-24T11:25:34.025Z,20.90
2022-11-24T11:28:36.828Z,13.35
2022-11-24T11:31:41.160Z,13.45
2022-11-24T11:34:44.603Z,16.62
2022-11-24T11:37:48.892Z,16.92
2022-11-24T11:40:52.254Z,12.32
2022-11-24T11:44:10.848Z,12.10
2022-11-24T11:47:29.302Z,10.70
2022-11-24T11:51:06.667Z,13.18
2022-11-24T11:54:16.834Z,12.70
2022-11-24T11:57:31.163Z,14.82
2022-11-24T12:00:39.799Z,15.48
2022-11-24T12:04:01.421Z,14.65
2022-11-24T12:07:32.183Z,11.18
2022-11-24T12:10:42.441Z,19.45
2022-11-24T12:14:11.226Z,12.05
2022-11-24T12:17:56.729Z,9.38
2022-11-24T12:21:26.145Z,8.15
2022-11-24T12:24:42.844Z,8.38
2022-11-24T12:27:56.882Z,9.70
2022-11-24T12:31:02.494Z,10.43
2022-11-24T12:34:14.717Z,8.38
2022-11-24T12:37:27.301Z,11.75
2022-11-24T12:41:25.434Z,6.82
2022-11-24T12:44:44.224Z,10.48
2022-11-24T12:47:46.785Z,9.15
2022-11-24T12:50:53.231Z,12.37
2022-11-24T12:53:58.240Z,12.18
2022-11-24T12:57:10.895Z,10.27
2022-11-24T13:00:21.816Z,8.30
2022-11-24T13:03:32.394Z,9.65
2022-11-24T13:06:37.863Z,9.55
2022-11-24T13:10:19.004Z,9.02
2022-11-24T13:13:26.296Z,9.00
2022-11-24T13:16:44.409Z,11.27
2022-11-24T13:19:51.850Z,9.67
2022-11-24T13:23:03.506Z,7.25
2022-11-24T13:26:43.641Z,14.52
2022-11-24T13:29:48.518Z,12.57
2022-11-24T13:33:01.038Z,13.88
2022-11-24T13:36:04.361Z,7.68
2022-11-24T13:42:42.365Z,7.97
2022-11-24T13:45:46.921Z,8.32
2022-11-24T13:48:49.677Z,7.82
2022-11-24T13:52:36.265Z,11.40
2022-11-24T13:55:41.060Z,8.60
2022-11-24T13:58:55.020Z,10.75
2022-11-24T14:01:59.003Z,11.88
2022-11-24T14:05:01.913Z,10.30
2022-11-24T14:08:07.656Z,8.45
2022-11-24T14:11:17.004Z,12.82
2022-11-24T14:14:21.206Z,9.45
2022-11-24T14:17:28.497Z,9.07
2022-11-24T14:20:31.246Z,10.07
2022-11-24T14:23:34.171Z,9.88
2022-11-24T14:26:39.342Z,9.73
2022-11-24T14:29:57.387Z,8.98
2022-11-24T14:33:02.899Z,11.95
2022-11-24T14:36:17.598Z,10.10
2022-11-24T14:39:25.520Z,7.25
2022-11-24T14:42:28.684Z,11.77
2022-11-24T14:45:32.046Z,9.80
2022-11-24T14:48:50.424Z,9.73
2022-11-24T14:52:02.408Z,10.95
2022-11-24T14:55:21.783Z,10.18
2022-11-24T14:58:40.472Z,13.40
2022-11-24T15:01:45.037Z,11.07
2022-11-24T15:05:03.232Z,7.60
2022-11-24T15:08:13.460Z,9.93
2022-11-24T15:11:16.235Z,7.62
2022-11-24T15:14:44.234Z,10.68
2022-11-24T15:17:58.268Z,14.30
2022-11-24T15:21:01.273Z,17.25
2022-11-24T15:24:18.379Z,11.43
2022-11-24T15:27:21.094Z,12.60
2022-11-24T15:30:24.001Z,10.63
2022-11-24T15:36:29.636Z,10.52
2022-11-24T15:39:32.575Z,8.75
2022-11-24T15:42:35.184Z,10.77
2022-11-24T15:45:37.905Z,8.52
2022-11-24T15:48:41.894Z,10.32
2022-11-24T15:57:54.316Z,9.57
2022-11-24T16:00:57.076Z,14.00
2022-11-24T16:04:00.741Z,13.23
2022-11-24T16:07:06.247Z,10.43
2022-11-24T16:10:21.716Z,9.75
2022-11-24T16:13:24.286Z,6.97
2022-11-24T16:16:29.115Z,10.77
2022-11-24T16:19:31.695Z,12.27
2022-11-24T16:22:34.530Z,9.35
2022-11-24T16:25:37.083Z,11.93
2022-11-24T16:28:40.657Z,11.52
2022-11-24T16:34:46.301Z,13.10
2022-11-24T16:37:48.930Z,12.17
2022-11-24T16:40:53.008Z,9.65
2022-11-24T16:43:55.616Z,12.93
2022-11-24T16:46:58.415Z,13.20
2022-11-24T16:53:04.333Z,9.35
2022-11-24T16:56:08.190Z,11.82
2022-11-24T16:59:11.899Z,11.63
2022-11-24T17:05:17.271Z,6.18
2022-11-24T17:08:19.796Z,11.00
2022-11-24T17:11:25.036Z,9.90
2022-11-24T17:14:27.613Z,11.57
2022-11-24T17:17:30.489Z,9.15
